Time;durP1;ratioP1;P1;durP2;ratioP2;P2;SDS_P1;SDS_P2;PMS_P1;PMS_P2;Temp;Humidity;BMP_temperature;BMP_pressure;BME280_temperature;BME280_humidity;BME280_pressure;Samples;Min_cycle;Max_cycle;Signal;HPM_P1;HPM_P2
2022/01/09 00:00:31;;;;;;;945.85;43.65;;;;;;;3.48;100.00;96253.13;5076999;28;20025;-56
2022/01/09 00:02:57;;;;;;;29.27;9.15;;;;;;;2.27;100.00;96239.75;5076366;28;20747;-56
2022/01/09 00:05:22;;;;;;;27.25;7.72;;;;;;;1.57;100.00;96225.06;5074737;28;20040;-58
2022/01/09 00:07:48;;;;;;;30.70;8.07;;;;;;;1.12;100.00;96218.78;5074729;28;20031;-58
2022/01/09 00:10:15;;;;;;;31.90;8.80;;;;;;;1.37;100.00;96220.59;5074853;28;20023;-56
2022/01/09 00:12:40;;;;;;;31.73;8.70;;;;;;;1.20;100.00;96201.44;5073781;28;20120;-55
2022/01/09 00:15:07;;;;;;;35.55;7.97;;;;;;;0.92;100.00;96206.59;5073216;28;20618;-56
2022/01/09 00:17:32;;;;;;;33.40;7.85;;;;;;;1.12;100.00;96193.13;5079914;28;20024;-57
2022/01/09 00:19:58;;;;;;;30.38;8.10;;;;;;;1.45;100.00;96205.75;5075233;28;20020;-54
2022/01/09 00:22:42;;;;;;;29.48;7.07;;;;;;;1.46;100.00;96199.72;5069485;28;20044;-55
2022/01/09 00:25:07;;;;;;;32.03;8.90;;;;;;;1.15;100.00;96198.16;5075484;28;20066;-56
2022/01/09 00:27:33;;;;;;;30.92;8.30;;;;;;;1.34;100.00;96186.41;5072739;28;20449;-54
2022/01/09 00:29:58;;;;;;;32.10;8.70;;;;;;;1.63;100.00;96187.13;5078545;28;20062;-55
2022/01/09 00:32:24;;;;;;;29.52;7.65;;;;;;;1.86;100.00;96196.63;5089495;28;20106;-57
2022/01/09 00:34:49;;;;;;;29.77;7.63;;;;;;;1.43;100.00;96176.69;5075557;28;20075;-55
2022/01/09 00:37:15;;;;;;;30.83;8.82;;;;;;;1.08;100.00;96160.75;5075744;28;20093;-54
2022/01/09 00:39:40;;;;;;;30.88;8.32;;;;;;;1.04;100.00;96165.13;5076317;28;20023;-54
2022/01/09 00:42:05;;;;;;;34.75;9.73;;;;;;;1.69;100.00;96168.94;5080827;28;20068;-55
2022/01/09 00:44:31;;;;;;;27.60;8.00;;;;;;;1.76;100.00;96168.72;5077766;28;20029;-56
2022/01/09 00:47:00;;;;;;;36.53;8.10;;;;;;;1.18;100.00;96149.28;5074285;28;20148;-57
2022/01/09 00:49:25;;;;;;;30.35;7.03;;;;;;;1.27;100.00;96151.53;5077290;28;20060;-56
2022/01/09 00:51:51;;;;;;;35.80;8.88;;;;;;;1.10;100.00;96148.69;5074951;28;20178;-56
2022/01/09 00:54:16;;;;;;;31.52;7.85;;;;;;;1.09;100.00;96139.31;5075956;28;20381;-57
2022/01/09 00:56:41;;;;;;;32.42;8.15;;;;;;;1.31;100.00;96136.88;5073957;28;20050;-56
2022/01/09 00:59:07;;;;;;;30.98;8.45;;;;;;;1.26;100.00;96134.44;5076270;28;20035;-57
2022/01/09 01:01:32;;;;;;;32.47;7.97;;;;;;;1.52;100.00;96130.13;5078336;28;20036;-58
2022/01/09 01:03:57;;;;;;;32.05;8.27;;;;;;;1.18;100.00;96118.47;5080932;28;20100;-58
2022/01/09 01:06:23;;;;;;;29.42;8.38;;;;;;;1.44;100.00;96127.00;5079404;28;20031;-55
2022/01/09 01:08:48;;;;;;;31.98;7.35;;;;;;;1.35;100.00;96118.72;5083588;28;20111;-57
2022/01/09 01:11:13;;;;;;;33.97;9.00;;;;;;;1.34;100.00;96105.91;5080146;28;20058;-56
2022/01/09 01:13:39;;;;;;;29.95;8.32;;;;;;;1.59;100.00;96105.91;5084220;28;20031;-55
2022/01/09 01:16:04;;;;;;;31.73;9.00;;;;;;;1.22;100.00;96103.81;5078853;28;20060;-57
2022/01/09 01:18:29;;;;;;;28.58;7.88;;;;;;;1.08;100.00;96099.94;5079407;28;20123;-57
2022/01/09 01:20:55;;;;;;;34.67;9.32;;;;;;;1.11;100.00;96093.88;5081090;28;20056;-56
2022/01/09 01:23:20;;;;;;;36.40;8.30;;;;;;;1.42;100.00;96100.53;5074204;28;20028;-56
2022/01/09 01:25:51;;;;;;;30.60;7.35;;;;;;;1.38;100.00;96088.69;5076543;28;20071;-57
2022/01/09 01:28:16;;;;;;;31.30;8.15;;;;;;;1.18;100.00;96077.38;5076918;28;20028;-56
2022/01/09 01:30:42;;;;;;;27.25;6.70;;;;;;;1.27;100.00;96079.63;5071704;28;20125;-56
2022/01/09 01:33:08;;;;;;;29.65;6.22;;;;;;;1.30;100.00;96073.53;5080072;28;20024;-54
2022/01/09 01:35:33;;;;;;;23.77;6.13;;;;;;;1.41;100.00;96076.56;5079282;28;20301;-56
2022/01/09 01:37:58;;;;;;;27.92;6.22;;;;;;;1.02;100.00;96065.97;5078913;28;20028;-54
2022/01/09 01:40:24;;;;;;;28.73;6.68;;;;;;;1.06;100.00;96072.66;5077141;28;20028;-55
2022/01/09 01:42:49;;;;;;;34.85;7.43;;;;;;;1.26;100.00;96072.81;5076615;27;20192;-55
2022/01/09 01:45:15;;;;;;;25.70;7.10;;;;;;;1.30;100.00;96058.97;5081842;27;20433;-56
2022/01/09 01:47:40;;;;;;;27.38;6.00;;;;;;;1.30;100.00;96058.97;5077790;28;20019;-55
2022/01/09 01:50:08;;;;;;;30.65;7.43;;;;;;;1.50;100.00;96044.56;5080030;27;20048;-56
2022/01/09 01:52:39;;;;;;;28.60;6.55;;;;;;;1.30;100.00;96046.13;5076831;28;20040;-58
2022/01/09 01:55:10;;;;;;;32.08;7.65;;;;;;;1.05;100.00;96042.72;5078197;28;20100;-56
2022/01/09 01:57:40;;;;;;;28.70;7.28;;;;;;;0.97;100.00;96032.72;5080675;28;20036;-57
2022/01/09 02:00:10;;;;;;;30.02;8.13;;;;;;;1.16;100.00;96035.53;5081612;28;20024;-55
2022/01/09 02:02:35;;;;;;;22.73;6.13;;;;;;;1.47;100.00;96047.25;5075527;28;20782;-57
2022/01/09 02:05:03;;;;;;;26.30;5.75;;;;;;;1.57;100.00;96046.03;5077139;28;20024;-54
2022/01/09 02:07:28;;;;;;;29.92;5.75;;;;;;;1.45;100.00;96026.78;5078291;28;20574;-54
2022/01/09 02:09:54;;;;;;;26.88;5.72;;;;;;;1.00;100.00;96008.72;5077695;28;20028;-56
2022/01/09 02:12:19;;;;;;;27.20;5.75;;;;;;;1.21;100.00;96018.19;5075219;28;20444;-56
2022/01/09 02:14:46;;;;;;;29.02;6.28;;;;;;;1.22;100.00;96014.75;5078915;28;20027;-55
2022/01/09 02:17:17;;;;;;;28.50;5.18;;;;;;;1.10;100.00;96012.59;5072900;28;20557;-54
2022/01/09 02:19:55;;;;;;;24.50;5.53;;;;;;;1.05;100.00;96017.91;5079881;28;20032;-56
2022/01/09 02:22:23;;;;;;;26.80;4.57;;;;;;;1.18;100.00;96007.19;5073935;28;20575;-56
2022/01/09 02:24:49;;;;;;;26.88;5.75;;;;;;;1.30;100.00;96007.59;5075413;28;20558;-54
2022/01/09 02:27:16;;;;;;;24.27;5.55;;;;;;;1.14;100.00;95996.22;5055027;28;20123;-56
2022/01/09 02:29:41;;;;;;;29.33;6.20;;;;;;;1.10;100.00;96000.63;5071371;28;20027;-56
2022/01/09 02:32:07;;;;;;;32.10;5.88;;;;;;;1.42;100.00;95995.22;5075892;28;20040;-55
2022/01/09 02:34:33;;;;;;;24.50;6.10;;;;;;;1.04;100.00;95997.44;5078729;28;20089;-57
2022/01/09 02:36:59;;;;;;;31.35;6.50;;;;;;;1.29;100.00;95992.25;5078743;28;20047;-55
2022/01/09 02:39:24;;;;;;;28.20;5.05;;;;;;;1.12;100.00;95993.72;5075641;28;20036;-56
2022/01/09 02:41:49;;;;;;;31.80;6.05;;;;;;;1.03;100.00;95982.91;5079468;28;20039;-57
2022/01/09 02:44:15;;;;;;;27.45;5.70;;;;;;;1.21;100.00;95987.38;5075510;28;20124;-55
2022/01/09 02:49:08;;;;;;;25.08;6.90;;;;;;;1.39;100.00;95980.75;5080373;28;20092;-56
2022/01/09 02:51:35;;;;;;;38.90;7.85;;;;;;;1.45;100.00;95989.94;5074040;28;20032;-55
2022/01/09 02:55:04;;;;;;;25.52;5.45;;;;;;;1.15;100.00;95977.34;5075736;28;20508;-56
2022/01/09 02:56:46;;;;;;;28.05;6.30;;;;;;;1.14;100.00;95970.56;5076842;28;20123;-56
2022/01/09 02:59:11;;;;;;;21.80;4.63;;;;;;;0.98;100.00;95964.28;5076730;28;20115;-56
2022/01/09 03:01:36;;;;;;;34.88;6.75;;;;;;;1.04;100.00;95957.19;5070723;28;20047;-55
2022/01/09 03:04:02;;;;;;;23.17;5.25;;;;;;;1.19;100.00;95960.09;5078907;28;20085;-56
2022/01/09 03:06:27;;;;;;;22.05;5.00;;;;;;;1.16;100.00;95958.50;5061524;28;20785;-57
2022/01/09 03:08:54;;;;;;;34.28;6.97;;;;;;;0.93;100.00;95951.59;5072678;28;20027;-57
2022/01/09 03:11:20;;;;;;;32.35;6.90;;;;;;;1.01;100.00;95948.75;5077030;28;20628;-58
2022/01/09 03:13:45;;;;;;;22.38;5.00;;;;;;;1.25;100.00;95953.00;5075356;28;20292;-57
2022/01/09 03:16:10;;;;;;;42.40;6.82;;;;;;;1.10;100.00;95935.59;5071509;28;20032;-55
2022/01/09 03:18:36;;;;;;;30.77;6.03;;;;;;;1.09;100.00;95941.63;5070675;28;20029;-58
2022/01/09 03:21:01;;;;;;;23.88;5.40;;;;;;;1.27;100.00;95934.97;5076879;28;20042;-56
2022/01/09 03:23:26;;;;;;;31.20;6.05;;;;;;;1.37;100.00;95936.31;5072056;28;20035;-57
2022/01/09 03:25:51;;;;;;;24.75;5.20;;;;;;;1.38;100.00;95932.84;5076592;28;20046;-58
2022/01/09 03:28:17;;;;;;;23.15;5.03;;;;;;;1.48;100.00;95938.47;5079916;28;20130;-56
2022/01/09 03:30:42;;;;;;;29.20;5.90;;;;;;;1.49;100.00;95940.13;5074059;28;20127;-56
2022/01/09 03:33:07;;;;;;;29.27;5.55;;;;;;;1.37;100.00;95931.16;5074893;28;20080;-57
2022/01/09 03:35:33;;;;;;;23.23;5.20;;;;;;;1.60;100.00;95927.72;5078713;28;20454;-57
2022/01/09 03:37:58;;;;;;;28.13;5.68;;;;;;;1.55;100.00;95924.50;5074502;28;20635;-55
2022/01/09 03:40:26;;;;;;;28.17;5.45;;;;;;;1.46;100.00;95919.72;5062051;28;20024;-57
2022/01/09 03:42:52;;;;;;;23.60;4.55;;;;;;;1.47;100.00;95918.78;5074540;28;20108;-56
2022/01/09 03:45:19;;;;;;;29.08;5.63;;;;;;;1.47;100.00;95916.22;5068939;28;20024;-57
2022/01/09 03:47:44;;;;;;;24.95;4.78;;;;;;;1.37;100.00;95923.47;5073775;28;20048;-55
2022/01/09 03:50:12;;;;;;;25.67;5.15;;;;;;;1.45;100.00;95923.16;5075915;28;21042;-55
2022/01/09 03:52:39;;;;;;;26.15;5.18;;;;;;;1.37;100.00;95904.66;5071183;28;20020;-55
2022/01/09 03:55:10;;;;;;;23.80;5.50;;;;;;;1.47;100.00;95905.94;5067802;28;20374;-56
2022/01/09 03:57:36;;;;;;;23.83;4.13;;;;;;;1.44;100.00;95906.91;5073653;28;20079;-56
2022/01/09 04:00:02;;;;;;;27.98;5.13;;;;;;;1.51;100.00;95910.09;5074846;28;20537;-56
2022/01/09 04:02:27;;;;;;;23.58;4.80;;;;;;;1.33;100.00;95897.06;5069944;28;20041;-55
2022/01/09 04:04:53;;;;;;;22.88;4.15;;;;;;;1.39;100.00;95902.84;5073968;28;20074;-58
2022/01/09 04:07:18;;;;;;;26.08;4.78;;;;;;;1.50;100.00;95905.84;5076767;28;20036;-55
2022/01/09 04:09:45;;;;;;;21.40;4.38;;;;;;;1.53;100.00;95903.16;5074926;28;20039;-57
2022/01/09 04:12:31;;;;;;;23.55;5.45;;;;;;;1.92;100.00;95903.31;5076705;28;20093;-56
2022/01/09 04:14:57;;;;;;;23.63;4.65;;;;;;;1.54;100.00;95902.25;5064335;28;20028;-56
2022/01/09 04:17:37;;;;;;;25.10;5.05;;;;;;;1.56;100.00;95894.50;5074349;28;20045;-56
2022/01/09 04:20:07;;;;;;;25.05;4.40;;;;;;;1.66;100.00;95885.53;5079673;28;20019;-56
2022/01/09 04:22:33;;;;;;;25.00;5.25;;;;;;;1.71;100.00;95883.63;5080702;28;20044;-55
2022/01/09 04:24:58;;;;;;;30.85;5.93;;;;;;;1.83;100.00;95892.56;5080594;28;20436;-56
2022/01/09 04:27:24;;;;;;;27.30;4.43;;;;;;;1.78;100.00;95889.34;5075361;28;20035;-56
2022/01/09 04:29:49;;;;;;;18.63;3.90;;;;;;;1.77;100.00;95875.66;5081399;28;20019;-55
2022/01/09 04:32:14;;;;;;;27.00;5.10;;;;;;;1.76;100.00;95875.72;5076852;27;20067;-55
2022/01/09 04:34:40;;;;;;;21.65;4.32;;;;;;;1.69;100.00;95883.69;5080759;28;20025;-56
2022/01/09 04:37:05;;;;;;;28.50;5.38;;;;;;;1.69;100.00;95872.56;5080003;28;20043;-56
2022/01/09 04:39:31;;;;;;;23.33;4.68;;;;;;;2.01;100.00;95875.56;5077520;28;20027;-56
2022/01/09 04:41:57;;;;;;;27.55;4.60;;;;;;;1.84;100.00;95878.81;5090753;27;20036;-56
2022/01/09 04:44:22;;;;;;;30.63;5.07;;;;;;;1.90;100.00;95888.84;5077975;28;20563;-56
2022/01/09 04:46:55;;;;;;;26.35;4.88;;;;;;;2.11;100.00;95879.41;5074090;28;20332;-56
2022/01/09 04:49:24;;;;;;;29.48;4.78;;;;;;;2.35;100.00;95876.72;5076551;28;20081;-57
2022/01/09 04:51:49;;;;;;;23.50;4.63;;;;;;;2.08;100.00;95877.81;5078495;28;20032;-56
2022/01/09 04:54:15;;;;;;;24.17;5.30;;;;;;;2.36;100.00;95874.09;5076160;28;20016;-55
2022/01/09 04:56:40;;;;;;;27.80;5.63;;;;;;;2.42;100.00;95867.84;5078542;28;20062;-56
2022/01/09 04:59:05;;;;;;;19.45;3.88;;;;;;;2.19;100.00;95863.66;5073608;28;20028;-56
2022/01/09 05:01:31;;;;;;;24.45;4.20;;;;;;;2.03;100.00;95864.31;5074731;28;20705;-55
2022/01/09 05:03:56;;;;;;;22.05;4.53;;;;;;;2.04;100.00;95862.56;5072304;28;20020;-55
2022/01/09 05:06:22;;;;;;;26.33;4.35;;;;;;;2.02;100.00;95860.09;5071535;28;20039;-56
2022/01/09 05:08:47;;;;;;;22.38;4.78;;;;;;;2.36;100.00;95865.53;5074403;28;20023;-56
2022/01/09 05:11:12;;;;;;;25.25;4.75;;;;;;;2.57;100.00;95874.06;5075318;28;20090;-56
2022/01/09 05:13:38;;;;;;;20.48;5.25;;;;;;;2.46;100.00;95872.81;5075532;28;20052;-57
2022/01/09 05:16:03;;;;;;;25.50;6.00;;;;;;;2.99;100.00;95875.66;5079213;28;20027;-56
2022/01/09 05:18:29;;;;;;;27.63;4.80;;;;;;;2.64;100.00;95878.06;5073286;28;20115;-58
2022/01/09 05:20:54;;;;;;;23.23;4.30;;;;;;;2.70;100.00;95872.63;5073217;28;20572;-56
2022/01/09 05:23:20;;;;;;;30.20;5.18;;;;;;;2.50;100.00;95879.50;5081869;28;20036;-57
2022/01/09 05:25:45;;;;;;;25.52;5.00;;;;;;;2.69;100.00;95881.25;5076158;28;20039;-58
2022/01/09 05:28:10;;;;;;;25.92;5.18;;;;;;;2.83;100.00;95891.81;5076457;28;20852;-58
2022/01/09 05:30:36;;;;;;;22.75;4.25;;;;;;;2.64;100.00;95885.78;5074876;28;20035;-57
2022/01/09 05:33:01;;;;;;;24.52;5.43;;;;;;;2.99;100.00;95896.25;5075420;28;20016;-57
2022/01/09 05:35:27;;;;;;;27.08;5.40;;;;;;;3.40;100.00;95880.66;5071767;28;20650;-56
2022/01/09 05:37:53;;;;;;;20.42;4.20;;;;;;;2.89;100.00;95888.94;5077492;28;20028;-55
2022/01/09 05:40:19;;;;;;;26.90;4.95;;;;;;;2.80;100.00;95880.81;5074456;28;20029;-56
2022/01/09 05:42:46;;;;;;;21.33;5.05;;;;;;;2.93;100.00;95888.81;5083506;28;20024;-56
2022/01/09 05:45:11;;;;;;;22.60;5.45;;;;;;;2.94;100.00;95888.75;5076986;28;20024;-55
2022/01/09 05:47:37;;;;;;;24.60;5.30;;;;;;;3.22;100.00;95895.25;5079841;28;20073;-57
2022/01/09 05:50:06;;;;;;;23.15;5.30;;;;;;;2.97;100.00;95895.50;5081293;28;20028;-55
2022/01/09 05:52:31;;;;;;;43.80;6.35;;;;;;;3.52;100.00;95900.72;5076741;28;20108;-55
2022/01/09 05:54:57;;;;;;;20.92;4.82;;;;;;;3.11;100.00;95906.03;5079525;28;20805;-56
2022/01/09 05:57:22;;;;;;;25.58;5.85;;;;;;;3.10;100.00;95912.06;5077653;28;20584;-57
2022/01/09 05:59:47;;;;;;;28.55;5.97;;;;;;;3.19;100.00;95914.22;5078217;28;20130;-57
2022/01/09 06:02:13;;;;;;;36.22;6.63;;;;;;;3.43;100.00;95912.28;5088533;27;20205;-55
2022/01/09 06:04:38;;;;;;;35.78;6.85;;;;;;;3.52;100.00;95916.16;5074202;28;20020;-57
2022/01/09 06:07:03;;;;;;;34.20;6.38;;;;;;;3.80;100.00;95922.63;5078180;28;20032;-57
2022/01/09 06:09:29;;;;;;;128.98;9.65;;;;;;;3.42;100.00;95920.09;5076802;28;20108;-57
2022/01/09 06:11:54;;;;;;;72.05;9.77;;;;;;;4.04;100.00;95915.44;5072742;28;20028;-55
2022/01/09 06:14:19;;;;;;;23.77;4.90;;;;;;;3.10;100.00;95919.78;5078065;28;20020;-55
2022/01/09 06:16:45;;;;;;;89.15;10.23;;;;;;;4.15;100.00;95933.81;5079108;28;20646;-55
2022/01/09 06:19:10;;;;;;;32.13;6.20;;;;;;;3.14;100.00;95941.09;5077428;28;20059;-57
2022/01/09 06:21:36;;;;;;;27.40;5.78;;;;;;;3.62;100.00;95938.06;5076455;28;20031;-55
2022/01/09 06:24:01;;;;;;;474.35;24.88;;;;;;;3.76;100.00;95936.56;5074802;28;20068;-55
2022/01/09 06:26:26;;;;;;;485.08;19.98;;;;;;;3.44;100.00;95929.41;5076592;28;20437;-56
2022/01/09 06:28:52;;;;;;;160.85;12.73;;;;;;;3.90;100.00;95941.91;5076040;28;20054;-55
2022/01/09 06:31:17;;;;;;;24.42;6.38;;;;;;;4.58;100.00;95938.63;5077885;28;20036;-57
2022/01/09 06:33:43;;;;;;;291.38;17.48;;;;;;;4.40;100.00;95956.69;5078366;28;20050;-59
2022/01/09 06:36:08;;;;;;;408.88;23.00;;;;;;;4.25;100.00;95955.69;5076708;28;20705;-57
2022/01/09 06:38:33;;;;;;;491.55;27.30;;;;;;;4.66;100.00;95957.13;5082594;28;20028;-57
2022/01/09 06:40:59;;;;;;;133.10;15.10;;;;;;;4.42;100.00;95970.34;5078442;28;20032;-56
2022/01/09 06:43:24;;;;;;;179.20;15.50;;;;;;;3.92;100.00;95975.38;5078710;28;20091;-56
2022/01/09 06:45:49;;;;;;;392.20;24.17;;;;;;;4.59;100.00;95977.25;5082961;28;20039;-57
2022/01/09 06:48:15;;;;;;;1144.55;58.42;;;;;;;6.03;100.00;95987.94;5076519;28;20020;-56
2022/01/09 06:50:40;;;;;;;493.00;28.13;;;;;;;4.73;100.00;95992.06;5076480;28;20122;-55
2022/01/09 06:53:06;;;;;;;931.38;47.17;;;;;;;5.32;100.00;95999.44;5078929;28;20077;-56
2022/01/09 06:55:31;;;;;;;207.60;15.05;;;;;;;4.16;100.00;96004.34;5081377;28;20110;-55
2022/01/09 06:57:56;;;;;;;721.55;40.03;;;;;;;4.94;100.00;95997.06;5075869;28;20020;-56
2022/01/09 07:00:22;;;;;;;1726.10;91.63;;;;;;;6.12;100.00;96010.72;5078261;28;20035;-57
2022/01/09 07:02:48;;;;;;;364.95;23.65;;;;;;;6.80;100.00;96025.06;5076112;28;20031;-57
2022/01/09 07:05:14;;;;;;;368.23;25.13;;;;;;;6.41;100.00;96029.81;5076921;28;20052;-56
2022/01/09 07:07:40;;;;;;;500.60;35.88;;;;;;;5.63;100.00;96034.06;5076149;28;20080;-55
2022/01/09 07:10:06;;;;;;;485.48;33.53;;;;;;;6.58;100.00;96039.25;5078049;28;20034;-56
2022/01/09 07:12:32;;;;;;;101.57;12.80;;;;;;;5.55;100.00;96034.44;5073743;28;20545;-55
2022/01/09 07:14:57;;;;;;;71.80;10.82;;;;;;;6.16;100.00;96040.72;5070016;28;20039;-55
2022/01/09 07:17:22;;;;;;;81.10;11.15;;;;;;;5.21;100.00;96051.69;5070304;28;20079;-57
2022/01/09 07:19:48;;;;;;;33.35;8.57;;;;;;;6.19;100.00;96061.22;5073355;28;20441;-55
2022/01/09 07:22:13;;;;;;;25.48;7.35;;;;;;;8.98;100.00;96057.59;5077313;28;20040;-57
2022/01/09 07:24:38;;;;;;;30.65;8.45;;;;;;;7.33;100.00;96070.34;5074260;28;20157;-58
2022/01/09 07:27:04;;;;;;;25.08;7.13;;;;;;;7.33;100.00;96066.03;5072407;28;20040;-57
2022/01/09 07:29:29;;;;;;;24.08;8.07;;;;;;;6.72;100.00;96078.13;5075548;28;20021;-56
2022/01/09 07:31:55;;;;;;;29.13;8.23;;;;;;;4.76;100.00;96081.47;5078946;28;20027;-56
2022/01/09 07:34:20;;;;;;;25.63;7.60;;;;;;;5.12;100.00;96078.81;5078029;28;20024;-56
2022/01/09 07:36:46;;;;;;;24.55;7.32;;;;;;;6.17;100.00;96089.78;5071775;28;20548;-55
2022/01/09 07:39:12;;;;;;;18.50;5.65;;;;;;;7.13;100.00;96093.13;5073763;28;20537;-55
2022/01/09 07:41:38;;;;;;;20.20;6.18;;;;;;;5.37;100.00;96100.88;5076451;28;20036;-57
2022/01/09 07:44:04;;;;;;;20.73;6.30;;;;;;;8.30;100.00;96109.47;5074625;28;20051;-56
2022/01/09 07:46:29;;;;;;;20.13;5.78;;;;;;;5.64;100.00;96105.53;5074896;28;20410;-56
2022/01/09 07:48:55;;;;;;;16.88;5.30;;;;;;;6.50;100.00;96111.34;5074326;28;20636;-55
2022/01/09 07:51:20;;;;;;;21.95;5.85;;;;;;;6.30;100.00;96115.84;5073191;28;20405;-56
2022/01/09 07:53:45;;;;;;;17.13;4.88;;;;;;;5.37;100.00;96119.78;5070324;28;20926;-57
2022/01/09 07:56:11;;;;;;;18.25;5.22;;;;;;;5.85;100.00;96119.94;5075749;28;20763;-55
2022/01/09 07:58:36;;;;;;;20.33;5.47;;;;;;;5.62;100.00;96133.22;5075395;28;20080;-56
2022/01/09 08:01:01;;;;;;;17.48;5.70;;;;;;;7.23;100.00;96140.06;5043889;28;1054402;-55
2022/01/09 08:03:26;;;;;;;20.33;6.00;;;;;;;7.20;100.00;96153.19;5071213;28;20476;-56
2022/01/09 08:05:52;;;;;;;20.63;6.18;;;;;;;7.74;100.00;96157.91;5074200;28;20263;-55
2022/01/09 08:08:17;;;;;;;29.27;7.10;;;;;;;17.84;100.00;96138.34;5077059;28;20610;-55
2022/01/09 08:10:43;;;;;;;17.27;5.10;;;;;;;7.99;100.00;96146.84;5076019;28;20036;-56
2022/01/09 08:13:08;;;;;;;20.15;6.00;;;;;;;9.25;100.00;96182.41;5077457;28;20051;-55
2022/01/09 08:15:33;;;;;;;20.33;6.30;;;;;;;8.09;100.00;96170.53;5076174;28;20222;-59
2022/01/09 08:17:59;;;;;;;16.17;4.85;;;;;;;8.28;100.00;96168.47;5075746;28;20779;-57
2022/01/09 08:20:24;;;;;;;15.50;4.53;;;;;;;7.39;100.00;96178.09;5075405;28;20161;-56
2022/01/09 08:22:49;;;;;;;17.55;5.00;;;;;;;10.68;100.00;96192.78;5090212;28;20020;-57
2022/01/09 08:25:17;;;;;;;15.65;4.75;;;;;;;9.18;100.00;96184.56;5074941;28;20802;-59
2022/01/09 08:27:44;;;;;;;15.00;3.47;;;;;;;6.32;100.00;96191.72;5076014;28;20082;-56
2022/01/09 08:30:11;;;;;;;13.20;3.58;;;;;;;10.03;100.00;96192.84;5076419;28;20757;-57
2022/01/09 08:32:37;;;;;;;14.32;4.07;;;;;;;8.82;100.00;96201.56;5077613;28;20027;-57
2022/01/09 08:35:03;;;;;;;14.88;4.25;;;;;;;8.16;100.00;96209.94;5081164;28;20032;-53
2022/01/09 08:37:29;;;;;;;13.45;3.75;;;;;;;8.16;100.00;96210.78;5075498;28;20035;-56
2022/01/09 08:39:54;;;;;;;14.05;4.15;;;;;;;9.50;100.00;96209.41;5073496;28;20024;-56
2022/01/09 08:42:19;;;;;;;16.98;4.70;;;;;;;10.04;100.00;96214.50;5074722;28;20046;-56
2022/01/09 08:44:45;;;;;;;14.18;3.35;;;;;;;7.73;100.00;96206.34;5078076;28;20039;-59
2022/01/09 08:47:10;;;;;;;15.55;4.63;;;;;;;10.40;100.00;96221.63;5073876;28;20499;-56
2022/01/09 08:49:36;;;;;;;15.05;4.93;;;;;;;11.29;100.00;96224.97;5090866;28;20872;-56
2022/01/09 08:52:03;;;;;;;24.42;6.38;;;;;;;11.98;100.00;96232.13;5071512;28;20040;-56
2022/01/09 08:54:29;;;;;;;17.58;5.25;;;;;;;11.37;100.00;96227.84;5069923;28;20547;-56
2022/01/09 08:56:54;;;;;;;13.73;4.00;;;;;;;10.53;100.00;96237.25;5072162;28;20039;-56
2022/01/09 08:59:20;;;;;;;17.27;4.72;;;;;;;9.33;100.00;96239.97;5076162;28;20027;-56
2022/01/09 09:01:46;;;;;;;15.35;4.35;;;;;;;7.49;100.00;96237.13;5075565;28;20032;-57
2022/01/09 09:04:12;;;;;;;15.63;4.78;;;;;;;9.98;100.00;96247.00;5077354;28;20145;-56
2022/01/09 09:06:37;;;;;;;14.80;4.13;;;;;;;9.72;100.00;96245.28;5078103;28;20698;-57
2022/01/09 09:09:03;;;;;;;16.38;4.85;;;;;;;9.72;100.00;96259.13;5074905;28;20040;-57
2022/01/09 09:11:28;;;;;;;20.33;5.05;;;;;;;8.78;100.00;96269.44;5076034;27;20047;-59
2022/01/09 09:13:54;;;;;;;13.38;4.50;;;;;;;10.58;100.00;96265.59;5047870;28;20023;-58
2022/01/09 09:16:19;;;;;;;11.85;3.83;;;;;;;8.97;100.00;96264.78;5072858;28;20600;-56
2022/01/09 09:18:47;;;;;;;14.05;4.45;;;;;;;9.03;100.00;96285.19;5074434;28;20036;-58
2022/01/09 09:21:13;;;;;;;14.05;4.18;;;;;;;9.34;100.00;96283.28;5094434;27;20123;-56
2022/01/09 09:23:38;;;;;;;13.27;3.85;;;;;;;7.59;100.00;96284.16;5089269;27;20044;-57
2022/01/09 09:26:04;;;;;;;14.95;4.10;;;;;;;9.43;100.00;96298.28;5082521;28;20031;-56
2022/01/09 09:28:29;;;;;;;18.67;4.85;;;;;;;8.50;100.00;96297.09;5073064;28;20048;-57
2022/01/09 09:30:55;;;;;;;10.98;3.80;;;;;;;9.55;100.00;96312.28;5077670;28;20032;-56
2022/01/09 09:33:20;;;;;;;15.50;3.50;;;;;;;6.90;100.00;96316.47;5073237;28;20501;-56
2022/01/09 09:35:45;;;;;;;14.35;4.53;;;;;;;9.34;100.00;96324.91;5082248;28;20029;-58
2022/01/09 09:38:11;;;;;;;17.45;4.38;;;;;;;7.09;100.00;96314.53;5075222;28;20039;-57
2022/01/09 09:40:36;;;;;;;14.88;3.80;;;;;;;8.43;100.00;96321.78;5074182;28;20944;-57
2022/01/09 09:43:02;;;;;;;14.05;4.40;;;;;;;11.15;100.00;96337.31;5080302;28;20124;-56
2022/01/09 09:45:28;;;;;;;14.25;4.60;;;;;;;9.39;100.00;96338.47;5080292;28;20028;-56
2022/01/09 09:47:53;;;;;;;17.30;4.18;;;;;;;8.11;100.00;96337.44;5074501;28;20157;-56
2022/01/09 09:50:20;;;;;;;13.90;3.72;;;;;;;8.58;100.00;96356.41;5077220;28;20025;-58
2022/01/09 09:52:48;;;;;;;14.18;4.45;;;;;;;10.35;100.00;96354.00;5075525;28;20142;-57
2022/01/09 09:55:15;;;;;;;16.25;4.70;;;;;;;10.12;100.00;96359.88;5077912;28;20035;-58
2022/01/09 09:57:40;;;;;;;14.02;4.07;;;;;;;10.11;100.00;96358.19;5077872;28;20031;-58
2022/01/09 10:00:17;;;;;;;13.93;3.72;;;;;;;9.16;100.00;96368.50;5074219;28;20034;-58
2022/01/09 10:02:52;;;;;;;15.63;4.50;;;;;;;8.55;100.00;96387.78;5075989;28;20425;-57
2022/01/09 10:05:25;;;;;;;13.65;3.90;;;;;;;10.29;100.00;96377.00;5077450;28;20032;-56
2022/01/09 10:07:53;;;;;;;14.70;4.10;;;;;;;10.17;100.00;96376.88;5080397;28;20028;-54
2022/01/09 10:10:21;;;;;;;9.40;3.40;;;;;;;9.75;100.00;96380.47;5079188;28;20202;-56
2022/01/09 10:12:48;;;;;;;13.57;3.75;;;;;;;10.00;100.00;96397.97;5076286;28;20020;-55
2022/01/09 10:15:19;;;;;;;13.38;3.75;;;;;;;9.27;100.00;96397.28;5075692;28;20023;-55
2022/01/09 10:17:50;;;;;;;13.85;4.38;;;;;;;10.73;100.00;96409.72;5079648;28;20030;-56
2022/01/09 10:20:17;;;;;;;13.02;4.18;;;;;;;9.80;100.00;96415.69;5076145;28;20050;-57
2022/01/09 10:22:48;;;;;;;12.80;3.25;;;;;;;8.93;100.00;96408.88;5077503;28;20400;-57
2022/01/09 10:25:21;;;;;;;14.70;3.85;;;;;;;8.35;100.00;96428.69;5080015;28;20032;-55
2022/01/09 10:28:05;;;;;;;17.75;4.88;;;;;;;10.46;100.00;96428.91;5073962;28;20485;-57
2022/01/09 10:30:39;;;;;;;14.90;4.15;;;;;;;10.46;100.00;96418.47;5074364;28;20342;-58
2022/01/09 10:33:12;;;;;;;14.13;3.63;;;;;;;10.83;100.00;96436.06;5071506;28;20070;-56
2022/01/09 10:35:44;;;;;;;12.82;4.72;;;;;;;13.45;100.00;96445.09;5076371;28;20056;-57
2022/01/09 10:38:15;;;;;;;14.23;3.83;;;;;;;10.01;100.00;96430.88;5080164;28;20584;-58
2022/01/09 10:40:43;;;;;;;12.93;3.53;;;;;;;7.95;100.00;96430.94;5082057;28;20986;-56
2022/01/09 10:43:13;;;;;;;12.95;4.03;;;;;;;9.83;100.00;96451.09;5078795;28;20598;-57
2022/01/09 10:45:41;;;;;;;11.85;3.30;;;;;;;7.83;100.00;96453.25;5078463;27;20047;-56
2022/01/09 10:48:10;;;;;;;13.52;3.08;;;;;;;6.33;100.00;96449.72;5079398;28;20021;-57
2022/01/09 10:50:38;;;;;;;15.95;4.63;;;;;;;9.38;100.00;96471.25;5074647;28;20040;-59
2022/01/09 10:53:18;;;;;;;12.50;3.08;;;;;;;7.38;100.00;96459.13;5076413;28;20051;-56
2022/01/09 10:55:46;;;;;;;14.52;3.67;;;;;;;6.78;100.00;96462.22;5073952;28;20466;-57
2022/01/09 10:58:31;;;;;;;16.23;4.07;;;;;;;7.42;100.00;96461.47;5074687;28;20024;-55
2022/01/09 11:01:15;;;;;;;18.20;3.67;;;;;;;6.21;100.00;96454.66;5072521;28;20128;-55
2022/01/09 11:03:46;;;;;;;16.05;3.83;;;;;;;6.71;100.00;96462.53;5074152;28;20036;-58
2022/01/09 11:06:12;;;;;;;15.50;3.70;;;;;;;7.27;100.00;96472.66;5076362;28;20024;-56
2022/01/09 11:08:39;;;;;;;16.73;4.13;;;;;;;6.53;100.00;96473.81;5075387;28;20039;-56
2022/01/09 11:11:12;;;;;;;17.75;4.55;;;;;;;7.58;100.00;96478.84;5078293;28;20040;-56
2022/01/09 11:13:43;;;;;;;16.33;4.38;;;;;;;9.24;100.00;96487.69;5074252;28;20098;-57
2022/01/09 11:18:56;;;;;;;17.45;4.35;;;;;;;8.51;100.00;96496.25;5071971;28;20267;-57
2022/01/09 11:21:22;;;;;;;15.35;4.20;;;;;;;8.00;100.00;96495.59;5073216;28;20044;-58
2022/01/09 11:24:29;;;;;;;15.38;3.83;;;;;;;6.22;100.00;96496.00;5075072;28;20034;-59
2022/01/09 11:27:13;;;;;;;18.77;4.72;;;;;;;11.09;100.00;96516.00;5075125;28;20107;-57